Time;durP1;ratioP1;P1;durP2;ratioP2;P2;SDS_P1;SDS_P2;PMS_P1;PMS_P2;Temp;Humidity;BMP_temperature;BMP_pressure;BME280_temperature;BME280_humidity;BME280_pressure;Samples;Min_cycle;Max_cycle;Signal;HPM_P1;HPM_P2
2020/12/03 00:01:13;;;;;;;20.05;7.32;;;9.20;99.90;;;;;;4878686;29;20029;-74
2020/12/03 00:03:50;;;;;;;22.67;6.80;;;9.20;99.90;;;;;;4878604;29;20040;-72
2020/12/03 00:06:20;;;;;;;19.77;6.90;;;9.20;99.90;;;;;;4878429;29;20374;-71
2020/12/03 00:09:09;;;;;;;17.45;6.85;;;9.20;99.90;;;;;;4861739;29;20434;-68
2020/12/03 00:11:39;;;;;;;24.15;7.20;;;9.20;99.90;;;;;;4877635;29;20033;-72
2020/12/03 00:14:05;;;;;;;19.85;6.80;;;9.20;99.90;;;;;;4878146;29;20033;-71
2020/12/03 00:16:33;;;;;;;15.52;6.05;;;9.30;99.90;;;;;;4878629;29;20029;-72
2020/12/03 00:19:00;;;;;;;16.70;6.13;;;9.20;99.90;;;;;;4878450;29;20489;-72
2020/12/03 00:21:35;;;;;;;19.52;6.18;;;9.30;99.90;;;;;;4878344;29;20037;-73
2020/12/03 00:24:01;;;;;;;19.95;5.93;;;9.30;99.90;;;;;;4878357;29;20044;-72
2020/12/03 00:26:29;;;;;;;16.73;5.82;;;9.20;99.90;;;;;;4877879;29;20048;-78
2020/12/03 00:28:54;;;;;;;17.48;5.85;;;9.20;99.90;;;;;;4877527;29;20041;-72
2020/12/03 00:31:20;;;;;;;19.70;6.32;;;9.20;99.90;;;;;;4878938;29;20029;-72
2020/12/03 00:33:46;;;;;;;20.20;6.07;;;9.20;99.90;;;;;;4880871;29;20377;-72
2020/12/03 00:36:12;;;;;;;20.90;5.78;;;9.30;99.90;;;;;;4881007;29;20021;-71
2020/12/03 00:38:37;;;;;;;17.58;5.65;;;9.30;99.90;;;;;;4880847;29;20033;-74
2020/12/03 00:41:03;;;;;;;17.23;5.93;;;9.20;99.90;;;;;;4880870;29;20035;-74
2020/12/03 00:43:29;;;;;;;17.90;5.90;;;9.20;99.90;;;;;;4880778;29;20033;-74
2020/12/03 00:49:18;;;;;;;17.13;5.32;;;9.20;99.90;;;;;;4870231;29;20184;-72
2020/12/03 00:51:48;;;;;;;13.88;5.55;;;9.20;99.90;;;;;;4880606;29;20517;-72
2020/12/03 00:54:13;;;;;;;19.25;6.20;;;9.10;99.90;;;;;;4880778;29;20025;-74
2020/12/03 00:56:39;;;;;;;16.17;5.55;;;9.20;99.90;;;;;;4880626;29;20477;-73
2020/12/03 00:59:05;;;;;;;18.95;6.35;;;9.10;99.90;;;;;;4880461;29;20065;-73
2020/12/03 01:04:52;;;;;;;18.75;6.25;;;9.10;99.90;;;;;;4880594;29;20056;-72
2020/12/03 01:07:18;;;;;;;18.27;6.00;;;9.20;99.90;;;;;;4880544;29;20040;-73
2020/12/03 01:09:44;;;;;;;13.93;6.15;;;9.10;99.90;;;;;;4863599;29;20125;-72
2020/12/03 01:12:11;;;;;;;18.83;6.95;;;9.10;99.90;;;;;;4880366;29;20351;-72
2020/12/03 01:14:37;;;;;;;19.58;6.60;;;9.10;99.90;;;;;;4880161;29;20028;-73
2020/12/03 01:20:27;;;;;;;17.92;6.28;;;9.10;99.90;;;;;;4880085;29;20120;-72
2020/12/03 01:22:54;;;;;;;16.67;7.32;;;9.10;99.90;;;;;;4880246;29;20033;-73
2020/12/03 01:25:22;;;;;;;14.82;6.82;;;9.10;99.90;;;;;;4879833;29;20036;-71
2020/12/03 01:27:48;;;;;;;15.80;6.50;;;9.10;99.90;;;;;;4879818;29;20048;-73
2020/12/03 01:30:16;;;;;;;16.88;7.40;;;9.10;99.90;;;;;;4879910;29;20025;-72
2020/12/03 01:36:03;;;;;;;18.48;7.00;;;9.10;99.90;;;;;;4880024;29;20535;-71
2020/12/03 01:38:29;;;;;;;15.23;6.68;;;9.10;99.90;;;;;;4879705;29;20029;-71
2020/12/03 01:40:55;;;;;;;19.45;6.68;;;9.10;99.90;;;;;;4879852;29;20370;-71
2020/12/03 01:43:20;;;;;;;17.23;7.50;;;9.10;99.90;;;;;;4879369;29;20028;-70
2020/12/03 01:45:58;;;;;;;16.27;7.10;;;9.00;99.90;;;;;;4879743;29;20037;-72
2020/12/03 01:52:26;;;;;;;14.27;6.93;;;9.00;99.90;;;;;;4877265;29;20485;-73
2020/12/03 01:54:52;;;;;;;15.82;7.55;;;9.00;99.90;;;;;;4879295;29;20065;-71
2020/12/03 01:57:25;;;;;;;16.25;7.63;;;9.00;99.90;;;;;;4879417;29;20618;-72
2020/12/03 02:00:07;;;;;;;16.58;7.85;;;9.00;99.90;;;;;;4879592;29;20029;-72
2020/12/03 02:05:55;;;;;;;18.35;7.60;;;9.00;99.90;;;;;;4880185;29;20032;-72
2020/12/03 02:08:20;;;;;;;14.02;7.97;;;9.10;99.90;;;;;;4880196;29;20040;-72
2020/12/03 02:10:46;;;;;;;19.58;7.88;;;9.10;99.90;;;;;;4879862;29;20064;-72
2020/12/03 02:13:12;;;;;;;13.35;8.07;;;9.00;99.90;;;;;;4879273;29;20036;-71
2020/12/03 02:15:37;;;;;;;14.15;7.30;;;9.00;99.90;;;;;;4879364;29;20029;-72
2020/12/03 02:21:25;;;;;;;15.50;6.90;;;9.00;99.90;;;;;;4879430;29;20114;-71
2020/12/03 02:23:51;;;;;;;13.70;7.22;;;9.00;99.90;;;;;;4878874;29;20489;-73
2020/12/03 02:26:17;;;;;;;11.27;6.82;;;9.00;99.90;;;;;;4879101;29;20029;-71
2020/12/03 02:28:44;;;;;;;13.85;7.03;;;8.90;99.90;;;;;;4878878;29;20040;-71
2020/12/03 02:31:10;;;;;;;16.83;7.30;;;9.00;99.90;;;;;;4879073;29;20112;-71
2020/12/03 02:37:00;;;;;;;12.35;7.10;;;9.00;99.90;;;;;;4879174;29;20061;-70
2020/12/03 02:39:30;;;;;;;17.48;7.47;;;9.10;99.90;;;;;;4878328;29;20041;-70
2020/12/03 02:41:57;;;;;;;14.43;7.15;;;9.00;99.90;;;;;;4878699;29;20036;-71
2020/12/03 02:44:23;;;;;;;15.13;7.05;;;9.00;99.90;;;;;;4878674;29;20542;-69
2020/12/03 02:46:49;;;;;;;13.95;7.00;;;9.00;99.90;;;;;;4878932;29;20073;-70
2020/12/03 02:49:15;;;;;;;17.20;7.95;;;9.00;99.90;;;;;;4878732;29;20040;-71
2020/12/03 02:51:41;;;;;;;15.77;7.90;;;9.00;99.90;;;;;;4878433;29;20049;-71
2020/12/03 02:54:09;;;;;;;14.32;7.03;;;9.00;99.90;;;;;;4878077;29;20084;-71
2020/12/03 02:56:35;;;;;;;19.90;7.88;;;9.00;99.90;;;;;;4878647;29;20029;-69
2020/12/03 02:59:01;;;;;;;16.48;7.20;;;9.00;99.90;;;;;;4878527;29;20029;-71
2020/12/03 03:01:27;;;;;;;14.90;7.60;;;9.10;99.90;;;;;;4878305;29;20081;-70
2020/12/03 03:07:15;;;;;;;16.35;8.38;;;9.10;99.90;;;;;;4878611;29;20056;-71
2020/12/03 03:09:40;;;;;;;14.10;7.70;;;9.10;99.90;;;;;;4878176;29;20017;-71
2020/12/03 03:12:06;;;;;;;17.95;8.50;;;9.10;99.90;;;;;;4878552;29;20521;-71
2020/12/03 03:14:32;;;;;;;13.07;7.85;;;9.10;99.90;;;;;;4878300;29;20382;-71
2020/12/03 03:16:57;;;;;;;15.43;8.85;;;9.10;99.90;;;;;;4878209;29;20044;-71
2020/12/03 03:19:23;;;;;;;18.20;8.35;;;9.10;99.90;;;;;;4878130;29;20025;-71
2020/12/03 03:21:49;;;;;;;20.52;9.50;;;9.10;99.90;;;;;;4878208;29;20040;-69
2020/12/03 03:24:15;;;;;;;19.02;9.95;;;9.10;99.90;;;;;;4878506;29;20036;-70
2020/12/03 03:26:42;;;;;;;15.05;9.23;;;9.10;99.90;;;;;;4878440;29;20029;-70
2020/12/03 03:29:09;;;;;;;20.00;9.52;;;9.10;99.90;;;;;;4877988;29;20502;-70
2020/12/03 03:31:34;;;;;;;22.35;10.25;;;9.10;99.90;;;;;;4878347;29;20145;-70
2020/12/03 03:37:22;;;;;;;15.07;9.60;;;9.20;99.90;;;;;;4878392;29;20493;-70
2020/12/03 03:39:47;;;;;;;18.83;10.55;;;9.20;99.90;;;;;;4877972;29;20029;-71
2020/12/03 03:42:13;;;;;;;14.57;9.57;;;9.20;99.90;;;;;;4878268;29;20056;-70
2020/12/03 03:44:39;;;;;;;18.15;10.55;;;9.20;99.90;;;;;;4878364;29;20149;-71
2020/12/03 03:47:04;;;;;;;19.80;10.65;;;9.20;99.90;;;;;;4877974;29;20473;-70
2020/12/03 03:52:52;;;;;;;16.15;10.25;;;9.20;99.90;;;;;;4867703;29;20509;-71
2020/12/03 03:55:17;;;;;;;15.45;10.48;;;9.30;99.90;;;;;;4878167;29;20033;-70
2020/12/03 03:57:43;;;;;;;15.38;10.68;;;9.20;99.90;;;;;;4877803;29;20085;-71
2020/12/03 04:00:09;;;;;;;17.48;11.25;;;9.20;99.90;;;;;;4878051;29;20066;-71
2020/12/03 04:02:35;;;;;;;18.58;11.38;;;9.20;99.90;;;;;;4878270;29;20327;-71
2020/12/03 04:05:00;;;;;;;20.90;10.93;;;9.20;99.90;;;;;;4878543;29;20081;-71
2020/12/03 04:07:26;;;;;;;17.15;10.07;;;9.20;99.90;;;;;;4881396;29;20067;-72
2020/12/03 04:09:51;;;;;;;17.80;10.75;;;9.20;99.90;;;;;;4881293;29;20037;-72
2020/12/03 04:12:17;;;;;;;16.83;10.80;;;9.30;99.90;;;;;;4881293;29;20025;-72
2020/12/03 04:14:43;;;;;;;15.40;9.80;;;9.20;99.90;;;;;;4881582;29;20032;-72
2020/12/03 04:17:08;;;;;;;18.80;10.32;;;9.20;99.90;;;;;;4881066;29;20040;-72
2020/12/03 04:22:56;;;;;;;12.13;8.90;;;9.20;99.90;;;;;;4881571;29;20374;-72
2020/12/03 04:25:22;;;;;;;16.23;9.38;;;9.30;99.90;;;;;;4880967;29;20029;-72
2020/12/03 04:27:47;;;;;;;14.00;9.05;;;9.30;99.90;;;;;;4880794;29;20077;-72
2020/12/03 04:30:13;;;;;;;13.20;9.18;;;9.30;99.90;;;;;;4880922;29;20077;-73
2020/12/03 04:32:39;;;;;;;14.57;9.27;;;9.30;99.90;;;;;;4880903;29;20033;-72
2020/12/03 04:35:06;;;;;;;14.82;9.18;;;9.30;99.90;;;;;;4880336;29;20044;-70
2020/12/03 04:37:32;;;;;;;12.80;8.68;;;9.40;99.90;;;;;;4881046;29;20017;-71
2020/12/03 04:39:58;;;;;;;14.40;8.45;;;9.30;99.90;;;;;;4881538;29;20029;-71
2020/12/03 04:42:29;;;;;;;13.70;8.02;;;9.30;99.90;;;;;;4881658;29;20478;-72
2020/12/03 04:45:21;;;;;;;15.13;8.45;;;9.30;99.90;;;;;;4881319;29;20119;-71
2020/12/03 04:47:49;;;;;;;15.32;8.02;;;9.30;99.90;;;;;;4881086;29;20037;-71
2020/12/03 04:50:46;;;;;;;14.15;7.90;;;9.30;99.90;;;;;;4881043;29;20054;-70
2020/12/03 04:53:12;;;;;;;13.98;7.47;;;9.30;99.90;;;;;;4880696;29;20057;-70
2020/12/03 04:55:56;;;;;;;11.98;7.70;;;9.30;99.90;;;;;;4880856;29;20538;-71
2020/12/03 04:58:59;;;;;;;15.77;8.05;;;9.20;99.90;;;;;;4880790;29;20029;-70
2020/12/03 05:01:47;;;;;;;9.80;7.72;;;9.20;99.90;;;;;;4880848;29;20079;-69
2020/12/03 05:04:17;;;;;;;14.73;8.60;;;9.20;99.90;;;;;;4880200;29;20029;-71
2020/12/03 05:07:07;;;;;;;16.30;8.88;;;9.10;99.90;;;;;;4880342;29;20029;-70
2020/12/03 05:09:54;;;;;;;16.88;10.35;;;9.10;99.90;;;;;;4880338;29;20502;-70
2020/12/03 05:12:40;;;;;;;13.82;10.60;;;9.10;99.90;;;;;;4880284;29;20025;-71
2020/12/03 05:15:31;;;;;;;15.05;10.02;;;9.10;99.90;;;;;;4880568;29;20108;-71
2020/12/03 05:21:24;;;;;;;16.67;11.80;;;9.10;99.90;;;;;;4880406;29;20032;-71
2020/12/03 05:23:50;;;;;;;16.65;12.43;;;9.10;99.90;;;;;;4880058;29;20045;-70
2020/12/03 05:26:19;;;;;;;15.57;12.10;;;9.10;99.90;;;;;;4880259;29;20029;-71
2020/12/03 05:29:03;;;;;;;20.00;12.45;;;9.10;99.90;;;;;;4879892;29;20070;-71
2020/12/03 05:31:33;;;;;;;18.52;12.70;;;9.10;99.90;;;;;;4880169;29;20122;-71
2020/12/03 05:37:23;;;;;;;20.15;15.13;;;9.10;99.90;;;;;;4880209;29;20121;-69
2020/12/03 05:39:54;;;;;;;20.58;15.40;;;9.00;99.90;;;;;;4880084;29;20085;-68
2020/12/03 05:42:32;;;;;;;19.30;15.30;;;9.00;99.90;;;;;;4880291;29;20045;-69
2020/12/03 05:45:10;;;;;;;18.80;15.38;;;9.10;99.90;;;;;;4880046;29;20029;-68
2020/12/03 05:47:38;;;;;;;18.70;15.60;;;9.10;99.90;;;;;;4879810;29;20057;-69
2020/12/03 05:53:27;;;;;;;23.73;15.88;;;9.10;99.90;;;;;;4874769;29;20060;-70
2020/12/03 05:56:12;;;;;;;21.10;15.55;;;9.10;99.90;;;;;;4879723;29;20040;-71
2020/12/03 05:58:37;;;;;;;19.25;14.45;;;9.10;99.90;;;;;;4879392;29;20037;-70
2020/12/03 06:01:15;;;;;;;22.65;15.23;;;9.10;99.90;;;;;;4879392;29;20073;-69
2020/12/03 06:03:59;;;;;;;19.65;14.00;;;9.10;99.90;;;;;;4879180;29;20057;-69
2020/12/03 06:06:52;;;;;;;20.88;13.68;;;9.10;99.90;;;;;;4879485;29;20455;-71
2020/12/03 06:09:38;;;;;;;18.38;12.77;;;9.10;99.90;;;;;;4879223;29;20116;-70
2020/12/03 06:12:28;;;;;;;20.25;13.23;;;9.00;99.90;;;;;;4879295;29;20489;-72
2020/12/03 06:15:22;;;;;;;17.60;12.38;;;9.00;99.90;;;;;;4879453;29;20052;-73
2020/12/03 06:18:25;;;;;;;18.77;12.70;;;9.00;99.90;;;;;;4803487;29;20035;-73
2020/12/03 06:21:33;;;;;;;16.23;11.77;;;9.00;99.90;;;;;;4803281;29;20027;-75
2020/12/03 06:24:01;;;;;;;18.95;12.00;;;9.00;99.90;;;;;;4803334;29;20031;-74
2020/12/03 06:26:53;;;;;;;17.92;13.02;;;9.00;99.90;;;;;;4803448;29;20042;-73
2020/12/03 06:29:43;;;;;;;17.63;12.75;;;9.00;99.90;;;;;;4802271;29;20082;-73
2020/12/03 06:32:26;;;;;;;19.92;12.88;;;9.00;99.90;;;;;;4803119;29;20046;-73
2020/12/03 06:38:22;;;;;;;17.17;12.80;;;9.00;99.90;;;;;;4803361;29;20522;-73
2020/12/03 06:41:20;;;;;;;20.65;12.57;;;9.00;99.90;;;;;;4802949;29;20165;-74
2020/12/03 06:43:51;;;;;;;19.98;14.25;;;9.00;99.90;;;;;;4803079;29;20039;-73
2020/12/03 06:46:53;;;;;;;20.02;13.02;;;9.00;99.90;;;;;;4803011;29;20058;-73
2020/12/03 06:49:59;;;;;;;18.40;13.38;;;9.10;99.90;;;;;;4802820;29;20110;-73
2020/12/03 06:53:04;;;;;;;20.55;14.38;;;9.10;99.90;;;;;;4802752;29;20031;-73
2020/12/03 06:55:51;;;;;;;22.83;15.98;;;9.10;99.90;;;;;;4860544;29;20469;-73
2020/12/03 06:58:19;;;;;;;24.58;15.90;;;9.10;99.90;;;;;;4878349;29;20039;-73
2020/12/03 07:01:08;;;;;;;24.50;16.65;;;9.10;99.90;;;;;;4878487;29;20478;-73
2020/12/03 07:03:42;;;;;;;25.15;16.98;;;9.10;99.90;;;;;;4802596;29;20042;-72
2020/12/03 07:06:45;;;;;;;25.00;16.88;;;9.10;99.90;;;;;;4802572;29;20147;-73
2020/12/03 07:09:54;;;;;;;25.83;16.48;;;9.10;99.90;;;;;;4802599;29;20072;-73
2020/12/03 07:12:40;;;;;;;26.10;14.18;;;9.20;99.90;;;;;;4802427;29;20191;-69
2020/12/03 07:15:32;;;;;;;22.02;14.07;;;9.90;99.90;;;;;;4802326;29;20046;-70
2020/12/03 07:18:45;;;;;;;23.45;14.05;;;12.40;99.90;;;;;;4802317;29;20537;-66
2020/12/03 07:24:34;;;;;;;25.15;16.30;;;13.10;99.90;;;;;;4802098;29;20042;-70
2020/12/03 07:27:10;;;;;;;29.75;17.95;;;12.80;99.90;;;;;;4802063;29;20820;-71
2020/12/03 07:29:51;;;;;;;29.42;18.13;;;10.70;99.90;;;;;;4802113;29;20146;-71
2020/12/03 07:32:35;;;;;;;28.10;18.42;;;9.60;99.90;;;;;;4802538;29;20042;-71
2020/12/03 07:35:28;;;;;;;28.23;18.30;;;9.10;99.90;;;;;;4802011;29;20075;-69
2020/12/03 07:38:24;;;;;;;32.97;19.90;;;8.90;99.90;;;;;;4802591;29;20042;-71
2020/12/03 07:40:55;;;;;;;29.75;20.30;;;8.80;99.90;;;;;;4842568;29;20059;-71
2020/12/03 07:43:38;;;;;;;33.67;19.27;;;8.50;99.90;;;;;;4881712;29;20028;-70
2020/12/03 07:46:29;;;;;;;34.33;21.10;;;8.50;99.90;;;;;;4882028;29;20080;-70
2020/12/03 07:48:56;;;;;;;32.67;20.17;;;8.30;99.90;;;;;;4881331;29;20033;-69
2020/12/03 07:51:23;;;;;;;35.83;21.10;;;8.10;99.90;;;;;;4881283;29;20124;-69
2020/12/03 07:54:27;;;;;;;35.90;22.02;;;8.10;99.90;;;;;;4880542;29;20056;-68
2020/12/03 07:56:53;;;;;;;40.47;23.00;;;8.30;99.90;;;;;;4805461;29;20034;-69
2020/12/03 07:59:33;;;;;;;37.50;22.27;;;8.30;99.90;;;;;;4805292;29;20035;-69
2020/12/03 08:02:00;;;;;;;37.00;22.75;;;8.20;99.90;;;;;;4805344;29;20082;-67
2020/12/03 08:07:49;;;;;;;32.28;19.50;;;8.00;99.90;;;;;;4805210;29;20042;-68
2020/12/03 08:10:40;;;;;;;42.03;22.77;;;8.20;99.90;;;;;;4805303;29;20169;-70
2020/12/03 08:13:28;;;;;;;43.65;23.10;;;8.20;99.90;;;;;;4805505;29;20399;-69
2020/12/03 08:16:06;;;;;;;36.88;21.42;;;8.00;99.90;;;;;;4805183;29;20072;-69
2020/12/03 08:18:46;;;;;;;38.90;22.33;;;7.90;99.90;;;;;;4805373;29;20594;-70
2020/12/03 08:24:34;;;;;;;33.20;20.67;;;8.10;99.90;;;;;;4805395;29;20123;-69
2020/12/03 08:27:19;;;;;;;38.78;21.17;;;8.00;99.90;;;;;;4822167;29;20045;-68
2020/12/03 08:29:45;;;;;;;34.17;21.13;;;8.00;99.90;;;;;;4880919;29;20037;-69
2020/12/03 08:32:10;;;;;;;34.47;21.15;;;8.00;99.90;;;;;;4880906;29;20021;-68
2020/12/03 08:34:38;;;;;;;31.73;20.80;;;8.00;99.90;;;;;;4880974;29;20029;-69
2020/12/03 08:37:05;;;;;;;31.20;19.48;;;7.90;99.90;;;;;;4880910;29;20128;-69
2020/12/03 08:39:32;;;;;;;35.50;20.23;;;8.00;99.90;;;;;;4864215;29;20375;-70
2020/12/03 08:41:58;;;;;;;32.28;18.77;;;8.00;99.90;;;;;;4880409;29;20488;-70
2020/12/03 08:44:25;;;;;;;34.92;19.85;;;8.00;99.90;;;;;;4879923;29;20064;-68
2020/12/03 08:46:53;;;;;;;35.50;18.27;;;8.00;99.90;;;;;;4880030;29;20025;-67
2020/12/03 08:49:23;;;;;;;31.13;17.63;;;8.00;99.90;;;;;;4879667;29;20041;-68
2020/12/03 08:55:12;;;;;;;27.73;16.17;;;7.90;99.90;;;;;;4870646;29;20156;-69
2020/12/03 08:57:40;;;;;;;27.73;16.27;;;7.90;99.90;;;;;;4880303;29;20061;-70
2020/12/03 09:00:09;;;;;;;29.60;15.63;;;7.80;99.90;;;;;;4880325;29;20101;-70
2020/12/03 09:02:35;;;;;;;29.67;15.85;;;7.90;99.90;;;;;;4880216;29;20021;-70
2020/12/03 09:05:02;;;;;;;24.67;15.02;;;8.00;99.90;;;;;;4880113;29;20036;-70
2020/12/03 09:07:31;;;;;;;26.58;15.18;;;7.90;99.90;;;;;;4879575;29;20504;-70
2020/12/03 09:09:57;;;;;;;25.90;14.82;;;8.00;99.90;;;;;;4879909;29;20072;-69
2020/12/03 09:12:30;;;;;;;28.50;15.48;;;8.00;99.90;;;;;;4879780;29;20025;-70
2020/12/03 09:15:00;;;;;;;24.88;14.25;;;8.00;99.90;;;;;;4879726;29;20106;-69
2020/12/03 09:17:27;;;;;;;21.85;14.25;;;8.00;99.90;;;;;;4879781;29;20033;-70
2020/12/03 09:19:53;;;;;;;22.65;13.10;;;8.00;99.90;;;;;;4879893;29;20033;-70
2020/12/03 09:22:23;;;;;;;24.00;12.85;;;8.00;99.90;;;;;;4879963;29;20036;-70
2020/12/03 09:24:49;;;;;;;24.42;14.02;;;8.10;99.90;;;;;;4879462;29;20094;-70
2020/12/03 09:27:16;;;;;;;21.98;13.60;;;8.20;99.90;;;;;;4879855;29;20040;-70
2020/12/03 09:29:51;;;;;;;23.63;14.07;;;8.10;99.90;;;;;;4879507;29;20056;-70
2020/12/03 09:32:20;;;;;;;20.63;12.77;;;7.80;99.90;;;;;;4879511;29;20029;-68
2020/12/03 09:34:49;;;;;;;24.77;12.77;;;8.00;99.90;;;;;;4879462;29;20032;-68
2020/12/03 09:40:37;;;;;;;19.25;12.18;;;8.00;99.90;;;;;;4879680;29;20097;-69
2020/12/03 09:43:04;;;;;;;23.27;13.73;;;8.00;99.90;;;;;;4879197;29;20539;-70
2020/12/03 09:45:37;;;;;;;23.63;12.90;;;8.00;99.90;;;;;;4879095;29;20025;-70
2020/12/03 09:48:11;;;;;;;19.33;12.32;;;7.90;99.90;;;;;;4878918;29;20037;-70
2020/12/03 09:50:40;;;;;;;22.83;12.90;;;7.90;99.90;;;;;;4879157;29;20466;-70
2020/12/03 09:53:06;;;;;;;24.48;13.45;;;7.80;99.90;;;;;;4879437;29;20029;-70
2020/12/03 09:55:32;;;;;;;23.48;12.93;;;7.90;99.90;;;;;;4878874;29;20109;-70
2020/12/03 09:57:58;;;;;;;28.25;14.18;;;8.00;99.90;;;;;;4879266;29;20033;-70
2020/12/03 10:00:39;;;;;;;21.25;12.98;;;7.90;99.90;;;;;;4878994;29;20538;-70
2020/12/03 10:03:19;;;;;;;18.17;12.95;;;7.90;99.90;;;;;;4878777;29;20029;-70
2020/12/03 10:06:03;;;;;;;22.60;14.20;;;7.70;99.90;;;;;;4878855;29;20053;-70
2020/12/03 10:08:30;;;;;;;21.70;13.80;;;7.80;99.90;;;;;;4878821;29;20045;-70
2020/12/03 10:10:58;;;;;;;22.35;14.23;;;7.80;99.90;;;;;;4878947;29;20033;-70
2020/12/03 10:13:39;;;;;;;24.95;15.52;;;7.90;99.90;;;;;;4878856;29;20033;-70
2020/12/03 10:16:10;;;;;;;25.98;14.65;;;7.90;99.90;;;;;;4861907;29;20035;-69
2020/12/03 10:18:46;;;;;;;24.27;14.82;;;7.90;99.90;;;;;;4878766;29;20416;-71
2020/12/03 10:21:35;;;;;;;23.05;14.48;;;7.90;99.90;;;;;;4878649;29;20104;-70
2020/12/03 10:24:39;;;;;;;22.35;14.05;;;7.90;99.90;;;;;;4878903;29;20029;-69
2020/12/03 10:27:40;;;;;;;24.60;15.18;;;7.90;99.90;;;;;;4839996;29;20063;-70
2020/12/03 10:30:19;;;;;;;28.02;15.75;;;7.90;99.90;;;;;;4802918;29;20599;-69
2020/12/03 10:32:50;;;;;;;24.33;15.57;;;8.00;99.90;;;;;;4802628;29;20033;-70
2020/12/03 10:35:16;;;;;;;30.02;15.65;;;7.90;99.90;;;;;;4802963;29;20043;-70
2020/12/03 10:37:55;;;;;;;26.92;15.48;;;8.00;99.90;;;;;;4802703;29;20038;-69
2020/12/03 10:40:21;;;;;;;31.52;16.02;;;8.00;99.90;;;;;;4802044;29;20509;-71
2020/12/03 10:42:50;;;;;;;23.15;14.57;;;8.00;99.90;;;;;;4802723;29;20125;-71
2020/12/03 10:45:23;;;;;;;27.10;15.05;;;8.10;99.90;;;;;;4802599;29;20034;-70
2020/12/03 10:47:54;;;;;;;24.02;14.82;;;8.00;99.90;;;;;;4802483;29;20046;-70
2020/12/03 10:53:28;;;;;;;23.30;14.40;;;8.10;99.90;;;;;;4767354;30;20440;-71
2020/12/03 10:56:02;;;;;;;21.67;15.10;;;8.00;99.90;;;;;;4766997;30;20055;-71
2020/12/03 10:58:58;;;;;;;24.83;15.70;;;8.00;99.90;;;;;;4766685;30;20136;-70
2020/12/03 11:01:28;;;;;;;28.40;15.38;;;8.00;99.90;;;;;;4766643;30;20035;-70
2020/12/03 11:03:56;;;;;;;29.73;15.27;;;7.90;99.90;;;;;;4766381;30;20057;-71
2020/12/03 11:09:54;;;;;;;27.77;14.75;;;8.00;99.90;;;;;;4801860;29;20115;-70
2020/12/03 11:12:21;;;;;;;28.48;14.13;;;7.90;99.90;;;;;;4802112;29;20143;-70
2020/12/03 11:14:47;;;;;;;23.92;13.73;;;8.00;99.90;;;;;;4801609;29;20420;-72
2020/12/03 11:17:32;;;;;;;27.85;14.98;;;7.80;99.90;;;;;;4801892;29;20030;-72
2020/12/03 11:20:00;;;;;;;30.52;14.48;;;7.90;99.90;;;;;;4786864;29;20026;-70
2020/12/03 11:25:50;;;;;;;19.98;11.73;;;7.90;99.90;;;;;;4840991;29;20030;-72
2020/12/03 11:28:39;;;;;;;22.88;11.70;;;7.90;99.90;;;;;;4840669;29;20029;-71
2020/12/03 11:31:07;;;;;;;22.23;11.80;;;7.90;99.90;;;;;;4840862;29;20066;-68
2020/12/03 11:33:38;;;;;;;26.48;13.63;;;7.90;99.90;;;;;;4841560;29;20479;-71
2020/12/03 11:36:13;;;;;;;24.20;12.38;;;7.90;99.90;;;;;;4841467;29;20549;-72
2020/12/03 11:38:41;;;;;;;22.25;12.43;;;7.90;99.90;;;;;;4841712;29;20034;-71
2020/12/03 11:41:12;;;;;;;26.08;12.45;;;7.90;99.90;;;;;;4841441;29;20495;-72
2020/12/03 11:48:50;;;;;;;22.90;12.27;;;8.00;99.90;;;;;;4840530;29;20041;-70
2020/12/03 11:51:29;;;;;;;20.88;12.25;;;8.00;99.90;;;;;;4840463;29;20022;-71
2020/12/03 11:54:00;;;;;;;24.15;11.95;;;8.00;99.90;;;;;;4840512;29;20033;-69
2020/12/03 11:56:28;;;;;;;26.75;12.73;;;8.00;99.90;;;;;;4876717;29;20053;-70
2020/12/03 11:59:17;;;;;;;26.45;11.95;;;8.00;99.90;;;;;;4877700;29;20025;-68
2020/12/03 12:01:54;;;;;;;24.38;11.45;;;7.90;99.90;;;;;;4877401;29;20039;-71
2020/12/03 12:04:30;;;;;;;22.95;12.40;;;8.00;99.90;;;;;;4877231;29;20493;-70
2020/12/03 12:12:10;;;;;;;24.58;11.45;;;8.00;99.90;;;;;;4801404;29;20678;-69
2020/12/03 12:14:36;;;;;;;23.48;11.57;;;8.10;99.90;;;;;;4801014;29;20050;-70
2020/12/03 12:17:02;;;;;;;26.30;11.80;;;8.10;99.90;;;;;;4801073;29;20054;-70
2020/12/03 12:19:29;;;;;;;30.80;11.63;;;8.10;99.90;;;;;;4800903;29;20088;-69
2020/12/03 12:21:56;;;;;;;17.05;9.70;;;8.00;99.90;;;;;;4801006;29;20047;-72
2020/12/03 12:24:22;;;;;;;23.30;10.90;;;7.90;99.90;;;;;;4800928;29;20175;-70
2020/12/03 12:26:48;;;;;;;20.55;11.43;;;7.90;99.90;;;;;;4803376;29;20534;-70
2020/12/03 12:29:14;;;;;;;27.15;10.75;;;8.00;99.90;;;;;;4804616;29;20520;-70
2020/12/03 12:31:39;;;;;;;22.98;10.98;;;8.00;99.90;;;;;;4804794;29;20023;-69
2020/12/03 12:34:05;;;;;;;25.85;11.25;;;8.10;99.90;;;;;;4804875;29;20492;-69
2020/12/03 12:36:31;;;;;;;23.23;11.88;;;7.90;99.90;;;;;;4805268;29;20091;-69
2020/12/03 12:38:57;;;;;;;22.95;11.68;;;8.00;99.90;;;;;;4805320;29;20587;-69
2020/12/03 12:41:22;;;;;;;25.42;11.82;;;8.00;99.90;;;;;;4805284;29;20130;-69
2020/12/03 12:43:48;;;;;;;24.23;12.30;;;7.90;99.90;;;;;;4804929;29;20045;-68
2020/12/03 12:46:23;;;;;;;24.45;12.85;;;8.10;99.90;;;;;;4827107;29;20080;-68
2020/12/03 12:48:50;;;;;;;30.15;13.68;;;8.00;99.90;;;;;;4880541;29;20077;-71
2020/12/03 12:51:16;;;;;;;28.60;13.27;;;7.90;99.90;;;;;;4880851;29;20118;-70
2020/12/03 12:53:42;;;;;;;28.10;13.80;;;8.00;99.90;;;;;;4880399;29;20029;-71
2020/12/03 12:56:11;;;;;;;26.73;13.32;;;8.00;99.90;;;;;;4880181;29;20498;-71
2020/12/03 12:58:37;;;;;;;25.92;13.18;;;7.90;99.90;;;;;;4880526;29;20033;-71
2020/12/03 13:01:04;;;;;;;22.90;12.93;;;7.90;99.90;;;;;;4880683;29;20048;-70
2020/12/03 13:03:31;;;;;;;30.98;14.60;;;7.80;99.90;;;;;;4880660;29;20061;-70
2020/12/03 13:05:57;;;;;;;23.92;13.68;;;7.80;99.90;;;;;;4880448;29;20517;-70
2020/12/03 13:11:44;;;;;;;24.77;13.25;;;7.80;99.90;;;;;;4880478;29;20144;-71
2020/12/03 13:14:10;;;;;;;21.98;12.68;;;8.00;99.90;;;;;;4880381;29;20056;-69
2020/12/03 13:16:37;;;;;;;24.42;13.35;;;7.90;99.90;;;;;;4880340;29;20107;-71
2020/12/03 13:19:04;;;;;;;22.58;13.15;;;8.00;99.90;;;;;;4880381;29;20033;-70
2020/12/03 13:21:31;;;;;;;21.75;12.85;;;8.00;99.90;;;;;;4880148;29;20093;-70
2020/12/03 13:23:58;;;;;;;22.65;13.07;;;8.20;99.90;;;;;;4880024;29;20108;-70
2020/12/03 13:26:24;;;;;;;23.45;12.50;;;8.10;99.90;;;;;;4879986;29;20044;-70
2020/12/03 13:28:50;;;;;;;23.48;13.77;;;8.10;99.90;;;;;;4879870;29;20456;-69
2020/12/03 13:31:16;;;;;;;26.73;13.90;;;8.10;99.90;;;;;;4880235;29;20032;-69
2020/12/03 13:33:42;;;;;;;23.83;14.15;;;7.90;99.90;;;;;;4880178;29;20393;-68
2020/12/03 13:36:08;;;;;;;24.10;15.52;;;8.00;99.90;;;;;;4880820;29;20378;-70
2020/12/03 13:41:56;;;;;;;24.67;13.63;;;8.00;99.90;;;;;;4880326;29;20108;-69
2020/12/03 13:44:22;;;;;;;25.75;15.30;;;8.00;99.90;;;;;;4880228;29;20104;-68
2020/12/03 13:46:47;;;;;;;25.95;15.10;;;7.90;99.90;;;;;;4880079;29;20029;-70
2020/12/03 13:49:15;;;;;;;27.08;15.35;;;8.00;99.90;;;;;;4879968;29;20165;-69
2020/12/03 13:51:41;;;;;;;22.55;13.52;;;7.90;99.90;;;;;;4879755;29;20029;-69
2020/12/03 13:54:07;;;;;;;19.70;13.15;;;7.70;99.90;;;;;;4879375;29;20044;-69
2020/12/03 13:56:34;;;;;;;27.60;14.07;;;7.80;99.90;;;;;;4879724;29;20478;-70
2020/12/03 13:59:00;;;;;;;22.02;13.10;;;7.80;99.90;;;;;;4879505;29;20060;-69
2020/12/03 14:01:26;;;;;;;21.83;13.85;;;7.70;99.90;;;;;;4879339;29;20069;-70
2020/12/03 14:03:52;;;;;;;34.92;16.25;;;7.70;99.90;;;;;;4878872;29;20437;-68
2020/12/03 14:06:18;;;;;;;22.40;13.57;;;7.70;99.90;;;;;;4879086;29;20039;-69
2020/12/03 14:12:05;;;;;;;27.08;15.27;;;7.60;99.90;;;;;;4879010;29;20116;-69
2020/12/03 14:14:31;;;;;;;21.73;13.13;;;7.70;99.90;;;;;;4879163;29;20478;-70
2020/12/03 14:16:57;;;;;;;25.25;13.95;;;7.70;99.90;;;;;;4878953;29;20108;-70
2020/12/03 14:19:22;;;;;;;21.92;13.57;;;7.70;99.90;;;;;;4879619;29;20036;-69
2020/12/03 14:28:14;;;;;;;19.88;11.43;;;7.70;99.90;;;;;;4879159;29;20128;-70
2020/12/03 14:30:40;;;;;;;21.45;11.73;;;7.70;99.90;;;;;;4879035;29;20062;-69
2020/12/03 14:33:05;;;;;;;16.65;10.88;;;7.80;99.90;;;;;;4879095;29;20255;-69
2020/12/03 14:35:31;;;;;;;17.80;10.90;;;7.70;99.90;;;;;;4878455;29;20033;-69
2020/12/03 14:37:57;;;;;;;21.05;11.18;;;7.70;99.90;;;;;;4878631;29;20061;-68
2020/12/03 14:40:22;;;;;;;16.77;10.43;;;7.80;99.90;;;;;;4878951;29;20505;-68
2020/12/03 14:42:48;;;;;;;15.48;9.75;;;7.90;99.90;;;;;;4878684;29;20599;-69
2020/12/03 14:45:16;;;;;;;13.98;8.82;;;7.70;99.90;;;;;;4878602;29;20021;-70
2020/12/03 14:47:42;;;;;;;16.08;9.57;;;7.80;99.90;;;;;;4878443;29;20089;-69
2020/12/03 14:50:17;;;;;;;14.40;9.48;;;7.90;99.90;;;;;;4878095;29;20036;-66
2020/12/03 14:52:52;;;;;;;15.82;9.23;;;7.80;99.90;;;;;;4878459;29;20077;-69